Time;durP1;ratioP1;P1;durP2;ratioP2;P2;SDS_P1;SDS_P2;PMS_P1;PMS_P2;Temp;Humidity;BMP_temperature;BMP_pressure;BME280_temperature;BME280_humidity;BME280_pressure;Samples;Min_cycle;Max_cycle;Signal;HPM_P1;HPM_P2
2021/11/25 00:01:08;;;;;;;58.03;20.40;;;;;;;;;;4997752;28;20104;-61
2021/11/25 00:03:38;;;;;;;57.17;20.85;;;;;;;;;;5014527;28;20069;-61
2021/11/25 00:09:39;;;;;;;58.88;19.95;;;;;;;;;;5015269;28;20118;-61
2021/11/25 00:12:05;;;;;;;53.80;19.10;;;;;;;;;;5021279;28;20120;-62
2021/11/25 00:14:36;;;;;;;54.13;19.45;;;;;;;;;;5003912;28;20025;-60
2021/11/25 00:17:04;;;;;;;54.92;19.95;;;;;;;;;;5020429;28;20053;-61
2021/11/25 00:19:32;;;;;;;60.30;20.38;;;;;;;;;;5022902;28;20112;-60
2021/11/25 00:21:58;;;;;;;56.08;20.15;;;;;;;;;;5021195;28;20047;-60
2021/11/25 00:24:26;;;;;;;53.67;18.38;;;;;;;;;;5013719;28;20669;-60
2021/11/25 00:26:54;;;;;;;62.30;20.58;;;;;;;;;;5014024;28;20236;-61
2021/11/25 00:29:30;;;;;;;57.72;20.13;;;;;;;;;;5014866;28;20933;-60
2021/11/25 00:31:55;;;;;;;68.03;20.83;;;;;;;;;;5012288;28;20072;-61
2021/11/25 00:34:25;;;;;;;56.50;19.65;;;;;;;;;;5020639;28;20030;-60
2021/11/25 00:36:54;;;;;;;61.10;21.60;;;;;;;;;;5016383;28;20108;-60
2021/11/25 00:39:19;;;;;;;59.67;20.98;;;;;;;;;;5013672;28;20182;-61
2021/11/25 00:41:46;;;;;;;68.38;22.33;;;;;;;;;;4984210;28;20069;-60
2021/11/25 00:44:12;;;;;;;62.72;20.58;;;;;;;;;;5013733;28;20121;-60
2021/11/25 00:46:40;;;;;;;67.35;20.67;;;;;;;;;;5014917;28;20029;-61
2021/11/25 00:49:07;;;;;;;61.88;22.10;;;;;;;;;;5020723;28;20044;-59
2021/11/25 00:51:33;;;;;;;59.50;20.02;;;;;;;;;;5022082;28;20138;-61
2021/11/25 00:53:59;;;;;;;75.55;22.27;;;;;;;;;;5018903;28;20144;-61
2021/11/25 00:56:25;;;;;;;71.05;20.95;;;;;;;;;;5018045;28;20049;-60
2021/11/25 00:58:53;;;;;;;72.18;22.35;;;;;;;;;;5004312;28;20042;-61
2021/11/25 01:01:21;;;;;;;66.55;23.83;;;;;;;;;;5016806;28;20463;-61
2021/11/25 01:03:46;;;;;;;65.55;23.27;;;;;;;;;;5016257;28;20115;-61
2021/11/25 01:06:12;;;;;;;74.63;23.27;;;;;;;;;;5019274;28;20033;-60
2021/11/25 01:08:37;;;;;;;81.57;23.20;;;;;;;;;;5017932;28;20041;-60
2021/11/25 01:11:03;;;;;;;70.38;21.83;;;;;;;;;;5016903;28;20036;-60
2021/11/25 01:13:31;;;;;;;67.13;22.42;;;;;;;;;;5005543;28;20021;-61
2021/11/25 01:15:57;;;;;;;63.47;21.70;;;;;;;;;;5017889;28;20036;-61
2021/11/25 01:18:30;;;;;;;72.45;22.70;;;;;;;;;;5007243;28;20769;-59
2021/11/25 01:20:55;;;;;;;84.53;23.65;;;;;;;;;;5018490;28;20040;-60
2021/11/25 01:23:28;;;;;;;86.63;24.83;;;;;;;;;;5005834;28;20100;-60
2021/11/25 01:25:54;;;;;;;74.50;22.83;;;;;;;;;;5020636;28;20392;-60
2021/11/25 01:28:23;;;;;;;74.07;22.77;;;;;;;;;;5017665;28;20481;-60
2021/11/25 01:30:53;;;;;;;78.53;23.02;;;;;;;;;;5018896;28;20059;-59
2021/11/25 01:33:21;;;;;;;76.00;21.67;;;;;;;;;;5016977;28;20041;-59
2021/11/25 01:35:50;;;;;;;82.28;23.15;;;;;;;;;;5014838;28;20021;-59
2021/11/25 01:38:19;;;;;;;80.95;23.42;;;;;;;;;;5015042;28;20040;-60
2021/11/25 01:40:47;;;;;;;84.13;22.92;;;;;;;;;;5018815;28;20125;-60
2021/11/25 01:43:21;;;;;;;73.25;22.02;;;;;;;;;;5019697;28;20071;-60
2021/11/25 01:45:50;;;;;;;77.95;23.40;;;;;;;;;;5019615;28;20152;-58
2021/11/25 01:48:18;;;;;;;72.47;23.23;;;;;;;;;;5019474;28;20025;-59
2021/11/25 01:50:44;;;;;;;74.80;22.33;;;;;;;;;;5018614;28;20491;-59
2021/11/25 01:53:13;;;;;;;77.15;23.02;;;;;;;;;;5024337;28;20033;-60
2021/11/25 01:55:40;;;;;;;76.05;21.73;;;;;;;;;;5021344;28;20969;-60
2021/11/25 01:58:07;;;;;;;79.72;22.13;;;;;;;;;;5005741;28;20057;-59
2021/11/25 02:00:35;;;;;;;68.05;20.65;;;;;;;;;;5018512;28;20067;-60
2021/11/25 02:03:03;;;;;;;80.88;23.17;;;;;;;;;;5016386;28;20037;-61
2021/11/25 02:05:28;;;;;;;74.80;22.55;;;;;;;;;;5019846;28;20041;-60
2021/11/25 02:07:59;;;;;;;66.40;20.63;;;;;;;;;;5017861;28;20025;-60
2021/11/25 02:10:24;;;;;;;83.97;23.75;;;;;;;;;;5015100;28;20057;-59
2021/11/25 02:12:53;;;;;;;69.13;20.40;;;;;;;;;;5014761;28;20207;-60
2021/11/25 02:15:20;;;;;;;77.57;21.92;;;;;;;;;;5017527;28;20029;-60
2021/11/25 02:17:48;;;;;;;72.55;21.40;;;;;;;;;;5022816;28;20041;-59
2021/11/25 02:20:14;;;;;;;80.55;23.17;;;;;;;;;;5018295;28;20028;-59
2021/11/25 02:22:40;;;;;;;75.93;22.70;;;;;;;;;;5016273;28;20036;-59
2021/11/25 02:25:09;;;;;;;87.93;24.33;;;;;;;;;;5022636;28;20048;-60
2021/11/25 02:27:35;;;;;;;79.30;23.48;;;;;;;;;;5018133;28;20119;-61
2021/11/25 02:30:04;;;;;;;87.93;26.20;;;;;;;;;;5014894;28;20110;-60
2021/11/25 02:32:32;;;;;;;87.88;24.92;;;;;;;;;;5021134;28;21942;-60
2021/11/25 02:34:58;;;;;;;100.93;25.30;;;;;;;;;;5014001;28;20037;-59
2021/11/25 02:37:26;;;;;;;80.03;22.48;;;;;;;;;;5016976;28;20029;-59
2021/11/25 02:39:54;;;;;;;79.40;23.48;;;;;;;;;;5021730;28;20037;-59
2021/11/25 02:42:20;;;;;;;90.80;24.85;;;;;;;;;;5017123;28;20025;-60
2021/11/25 02:44:46;;;;;;;84.88;24.30;;;;;;;;;;5016348;28;20041;-60
2021/11/25 02:47:14;;;;;;;74.60;22.20;;;;;;;;;;5016613;28;20911;-60
2021/11/25 02:49:40;;;;;;;82.13;24.33;;;;;;;;;;5016854;28;20398;-61
2021/11/25 02:52:06;;;;;;;88.90;22.63;;;;;;;;;;5016205;28;20039;-59
2021/11/25 02:54:34;;;;;;;91.40;23.25;;;;;;;;;;5015879;28;20033;-60
2021/11/25 02:57:00;;;;;;;82.65;23.30;;;;;;;;;;5014928;28;20080;-60
2021/11/25 02:59:33;;;;;;;91.93;23.75;;;;;;;;;;5024300;28;20492;-60
2021/11/25 03:02:01;;;;;;;74.85;21.95;;;;;;;;;;5016340;28;20036;-58
2021/11/25 03:04:29;;;;;;;90.38;24.27;;;;;;;;;;5032951;28;20129;-59
2021/11/25 03:06:55;;;;;;;89.03;24.35;;;;;;;;;;5015535;28;20760;-59
2021/11/25 03:09:22;;;;;;;86.82;25.20;;;;;;;;;;5005913;28;20040;-60
2021/11/25 03:11:53;;;;;;;92.15;26.83;;;;;;;;;;5016832;28;20025;-60
2021/11/25 03:14:21;;;;;;;86.63;25.42;;;;;;;;;;5018881;28;20120;-59
2021/11/25 03:16:46;;;;;;;99.90;25.73;;;;;;;;;;5015016;28;20456;-59
2021/11/25 03:19:13;;;;;;;100.63;26.27;;;;;;;;;;5022284;28;20593;-60
2021/11/25 03:21:41;;;;;;;89.28;25.27;;;;;;;;;;5016329;28;20040;-60
2021/11/25 03:24:08;;;;;;;89.07;25.85;;;;;;;;;;5016111;28;20045;-60
2021/11/25 03:26:36;;;;;;;97.88;26.13;;;;;;;;;;5017294;28;20039;-60
2021/11/25 03:29:05;;;;;;;104.90;27.60;;;;;;;;;;5018247;28;20037;-60
2021/11/25 03:31:33;;;;;;;112.22;25.85;;;;;;;;;;5017653;28;20030;-60
2021/11/25 03:34:03;;;;;;;98.78;24.83;;;;;;;;;;5015959;28;20106;-60
2021/11/25 03:36:33;;;;;;;90.22;25.40;;;;;;;;;;5132523;22;20114;-94
2021/11/25 03:42:54;;;;;;;100.60;25.48;;;;;;;;;;5045239;28;20053;-91
2021/11/25 03:45:56;;;;;;;;;;;;;;;;;;;;;
2021/11/25 03:48:35;;;;;;;96.45;26.67;;;;;;;;;;5033241;28;20077;-90
2021/11/25 03:51:38;;;;;;;102.80;24.90;;;;;;;;;;5045801;28;20347;-90
2021/11/25 03:54:13;;;;;;;94.28;25.33;;;;;;;;;;5054343;28;20047;-90
2021/11/25 04:18:18;;;;;;;111.45;25.10;;;;;;;;;;5100773;28;20030;-92
2021/11/25 04:20:47;;;;;;;114.88;25.60;;;;;;;;;;5094157;28;20083;-88
2021/11/25 04:23:13;;;;;;;98.95;25.17;;;;;;;;;;5069029;28;20060;-88
2021/11/25 04:25:41;;;;;;;107.65;24.02;;;;;;;;;;5062412;28;20024;-90
2021/11/25 04:28:34;;;;;;;119.72;25.27;;;;;;;;;;5083826;28;20082;-90
2021/11/25 04:37:07;;;;;;;126.78;27.65;;;;;;;;;;5081703;28;20047;-90
2021/11/25 04:39:35;;;;;;;121.72;27.00;;;;;;;;;;5055941;28;20119;-94
2021/11/25 04:42:09;;;;;;;112.07;27.77;;;;;;;;;;5068234;28;20092;-90
2021/11/25 04:44:37;;;;;;;98.95;28.77;;;;;;;;;;5069008;28;20031;-92
2021/11/25 04:47:25;;;;;;;109.63;28.10;;;;;;;;;;5066735;28;20124;-91
2021/11/25 04:49:51;;;;;;;96.05;26.25;;;;;;;;;;5069435;28;20418;-95
2021/11/25 04:52:22;;;;;;;98.57;28.48;;;;;;;;;;5074885;28;20092;-91
2021/11/25 04:58:22;;;;;;;109.38;25.85;;;;;;;;;;4990528;28;20058;-57
2021/11/25 05:00:53;;;;;;;99.32;27.80;;;;;;;;;;4992256;28;20057;-58
2021/11/25 05:03:18;;;;;;;113.00;31.10;;;;;;;;;;4958948;28;20064;-58
2021/11/25 05:05:46;;;;;;;127.82;31.30;;;;;;;;;;4961172;28;20033;-57
2021/11/25 05:08:14;;;;;;;105.35;29.02;;;;;;;;;;4998805;28;20642;-57
2021/11/25 05:10:45;;;;;;;105.78;27.85;;;;;;;;;;5011836;28;20924;-58
2021/11/25 05:13:13;;;;;;;111.50;27.05;;;;;;;;;;4994089;28;20036;-58
2021/11/25 05:15:41;;;;;;;118.93;31.92;;;;;;;;;;5013071;28;20105;-59
2021/11/25 05:18:07;;;;;;;120.78;29.77;;;;;;;;;;5011207;28;20039;-58
2021/11/25 05:20:36;;;;;;;102.45;28.20;;;;;;;;;;5012710;28;20364;-59
2021/11/25 05:23:02;;;;;;;104.18;25.90;;;;;;;;;;5011938;28;20048;-59
2021/11/25 05:25:27;;;;;;;112.43;29.52;;;;;;;;;;5010207;28;20123;-58
2021/11/25 05:27:53;;;;;;;126.70;31.33;;;;;;;;;;5013462;28;20483;-59
2021/11/25 05:30:30;;;;;;;126.57;29.58;;;;;;;;;;5014967;28;20083;-59
2021/11/25 05:32:56;;;;;;;110.22;29.77;;;;;;;;;;5014281;28;20604;-59
2021/11/25 05:35:23;;;;;;;119.25;29.17;;;;;;;;;;4993709;28;20021;-58
2021/11/25 05:37:51;;;;;;;116.93;30.27;;;;;;;;;;5012011;28;20044;-58
2021/11/25 05:40:17;;;;;;;104.05;25.83;;;;;;;;;;5006115;28;20040;-58
2021/11/25 05:42:45;;;;;;;125.10;29.52;;;;;;;;;;4991804;28;20037;-58
2021/11/25 05:45:15;;;;;;;119.03;27.88;;;;;;;;;;5000322;28;20068;-59
2021/11/25 05:47:42;;;;;;;115.05;28.20;;;;;;;;;;4993381;28;20033;-59
2021/11/25 05:50:09;;;;;;;103.68;28.33;;;;;;;;;;4994348;28;20028;-57
2021/11/25 05:52:37;;;;;;;126.45;28.05;;;;;;;;;;5011126;28;21276;-57
2021/11/25 05:55:06;;;;;;;114.93;28.98;;;;;;;;;;5011403;28;20025;-58
2021/11/25 05:57:37;;;;;;;109.35;29.23;;;;;;;;;;5010717;28;20049;-59
2021/11/25 06:00:04;;;;;;;104.60;26.75;;;;;;;;;;5013360;28;20139;-59
2021/11/25 06:02:32;;;;;;;122.65;29.23;;;;;;;;;;5013362;28;20122;-58
2021/11/25 06:05:00;;;;;;;110.95;28.50;;;;;;;;;;5013708;28;20136;-59
2021/11/25 06:07:30;;;;;;;121.40;28.85;;;;;;;;;;5009073;28;20042;-58
2021/11/25 06:09:56;;;;;;;114.45;29.85;;;;;;;;;;4992989;28;20443;-58
2021/11/25 06:12:24;;;;;;;102.72;29.55;;;;;;;;;;4993971;28;20033;-59
2021/11/25 06:14:52;;;;;;;119.53;28.08;;;;;;;;;;5012827;28;20029;-58
2021/11/25 06:17:20;;;;;;;108.82;28.02;;;;;;;;;;5016324;28;20036;-61
2021/11/25 06:19:48;;;;;;;124.72;28.73;;;;;;;;;;5011338;28;20439;-58
2021/11/25 06:22:15;;;;;;;109.60;28.88;;;;;;;;;;5013865;28;20034;-59
2021/11/25 06:24:45;;;;;;;131.77;30.65;;;;;;;;;;4993638;28;20037;-59
2021/11/25 06:27:13;;;;;;;113.88;28.13;;;;;;;;;;4993214;28;20045;-59
2021/11/25 06:29:38;;;;;;;123.57;27.70;;;;;;;;;;4988011;28;20041;-58
2021/11/25 06:32:11;;;;;;;131.60;28.98;;;;;;;;;;5008416;28;20032;-59
2021/11/25 06:34:41;;;;;;;128.25;29.40;;;;;;;;;;4995192;28;20117;-59
2021/11/25 06:37:10;;;;;;;123.32;30.00;;;;;;;;;;4996343;28;20391;-58
2021/11/25 06:39:37;;;;;;;124.07;29.30;;;;;;;;;;5013061;28;21038;-58
2021/11/25 06:42:03;;;;;;;123.20;29.45;;;;;;;;;;4984836;28;20170;-58
2021/11/25 06:44:31;;;;;;;142.48;32.83;;;;;;;;;;4995218;28;20120;-58
2021/11/25 06:47:00;;;;;;;119.00;29.77;;;;;;;;;;5009243;28;20124;-58
2021/11/25 06:49:29;;;;;;;113.95;29.13;;;;;;;;;;4996583;28;22296;-57
2021/11/25 06:51:57;;;;;;;131.02;31.42;;;;;;;;;;5013842;28;20044;-59
2021/11/25 06:54:23;;;;;;;126.70;30.02;;;;;;;;;;5013015;28;20098;-60
2021/11/25 06:56:48;;;;;;;138.60;31.20;;;;;;;;;;5011983;28;21079;-60
2021/11/25 06:59:16;;;;;;;125.03;29.35;;;;;;;;;;4978728;28;20132;-59
2021/11/25 07:01:45;;;;;;;134.65;33.17;;;;;;;;;;4995653;28;20089;-60
2021/11/25 07:04:12;;;;;;;133.25;34.72;;;;;;;;;;5010529;28;20520;-60
2021/11/25 07:06:38;;;;;;;131.82;32.78;;;;;;;;;;5011563;28;20030;-58
2021/11/25 07:09:07;;;;;;;150.20;34.13;;;;;;;;;;4995839;28;20037;-59
2021/11/25 07:11:32;;;;;;;135.25;32.22;;;;;;;;;;5010314;28;20037;-58
2021/11/25 07:14:04;;;;;;;140.50;32.38;;;;;;;;;;5007909;28;20021;-60
2021/11/25 07:16:31;;;;;;;157.82;34.60;;;;;;;;;;5003813;28;20033;-59
2021/11/25 07:19:02;;;;;;;149.23;32.38;;;;;;;;;;4993149;28;20144;-59
2021/11/25 07:21:30;;;;;;;129.05;32.33;;;;;;;;;;5014142;28;20029;-58
2021/11/25 07:23:56;;;;;;;138.40;33.72;;;;;;;;;;5007297;28;20956;-60
2021/11/25 07:26:26;;;;;;;141.85;35.40;;;;;;;;;;5012005;28;20038;-60
2021/11/25 07:28:57;;;;;;;143.20;33.22;;;;;;;;;;5008286;28;20060;-60
2021/11/25 07:31:27;;;;;;;142.30;33.53;;;;;;;;;;5011916;28;20127;-59
2021/11/25 07:33:55;;;;;;;127.90;31.63;;;;;;;;;;4996128;28;20051;-59
2021/11/25 07:36:24;;;;;;;138.77;33.85;;;;;;;;;;5010785;28;20023;-60
2021/11/25 07:38:51;;;;;;;136.63;33.28;;;;;;;;;;5005778;28;20026;-60
2021/11/25 07:41:22;;;;;;;133.75;32.33;;;;;;;;;;4989896;28;20179;-59
2021/11/25 07:43:49;;;;;;;136.30;32.45;;;;;;;;;;5011199;28;20651;-58
2021/11/25 07:46:17;;;;;;;138.88;33.33;;;;;;;;;;4973541;28;20056;-59
2021/11/25 07:48:43;;;;;;;125.93;32.80;;;;;;;;;;4986440;28;20050;-60
2021/11/25 07:51:09;;;;;;;137.27;33.28;;;;;;;;;;5012557;28;20044;-59
2021/11/25 07:53:35;;;;;;;137.65;32.45;;;;;;;;;;5012529;28;20749;-60
2021/11/25 07:56:02;;;;;;;126.53;30.73;;;;;;;;;;4991592;28;20468;-60
2021/11/25 07:58:30;;;;;;;119.00;32.60;;;;;;;;;;5013575;28;20088;-60
2021/11/25 08:00:58;;;;;;;129.73;31.60;;;;;;;;;;5011057;28;20033;-60
2021/11/25 08:03:26;;;;;;;101.63;26.98;;;;;;;;;;4994649;28;20105;-63
2021/11/25 08:05:53;;;;;;;114.68;29.80;;;;;;;;;;5013655;28;20033;-59
2021/11/25 08:08:23;;;;;;;126.45;30.73;;;;;;;;;;4995175;28;20058;-60
2021/11/25 08:10:49;;;;;;;142.05;31.60;;;;;;;;;;4997743;28;20033;-59
2021/11/25 08:13:17;;;;;;;112.38;28.65;;;;;;;;;;5012733;28;20120;-58
2021/11/25 08:15:43;;;;;;;111.68;28.60;;;;;;;;;;5015030;28;20072;-58
2021/11/25 08:18:08;;;;;;;120.65;30.70;;;;;;;;;;5013021;28;20510;-57
2021/11/25 08:20:36;;;;;;;103.85;28.95;;;;;;;;;;5016578;28;20033;-58
2021/11/25 08:23:07;;;;;;;111.03;29.77;;;;;;;;;;4996669;28;20028;-58
2021/11/25 08:25:35;;;;;;;101.82;28.50;;;;;;;;;;4989640;28;20037;-55
2021/11/25 08:28:03;;;;;;;101.43;28.63;;;;;;;;;;5015659;28;20032;-57
2021/11/25 08:30:29;;;;;;;115.75;30.33;;;;;;;;;;4998569;28;20052;-57
2021/11/25 08:32:59;;;;;;;113.57;29.77;;;;;;;;;;4994677;28;20036;-57
2021/11/25 08:35:25;;;;;;;89.32;27.40;;;;;;;;;;5012776;28;20083;-57
2021/11/25 08:37:54;;;;;;;98.97;29.05;;;;;;;;;;5015982;28;20030;-57
2021/11/25 08:40:22;;;;;;;97.18;27.23;;;;;;;;;;5014841;28;20489;-56
2021/11/25 08:42:51;;;;;;;91.68;27.02;;;;;;;;;;4994671;28;20033;-57
2021/11/25 08:45:19;;;;;;;86.95;28.52;;;;;;;;;;4994593;28;20476;-56
2021/11/25 08:47:44;;;;;;;93.28;26.50;;;;;;;;;;4995166;28;20064;-56
2021/11/25 08:50:15;;;;;;;87.20;26.77;;;;;;;;;;4995827;28;21049;-56
2021/11/25 08:52:41;;;;;;;98.65;26.05;;;;;;;;;;5014669;28;20071;-58
2021/11/25 08:55:07;;;;;;;79.25;23.45;;;;;;;;;;4994840;28;20606;-57
2021/11/25 08:57:37;;;;;;;91.43;26.25;;;;;;;;;;4995536;28;20286;-57
2021/11/25 09:00:03;;;;;;;86.10;25.25;;;;;;;;;;4994488;28;20178;-58
2021/11/25 09:02:30;;;;;;;84.70;27.27;;;;;;;;;;5014875;28;20033;-59
2021/11/25 09:05:01;;;;;;;79.32;24.08;;;;;;;;;;5014925;28;20557;-56
2021/11/25 09:07:26;;;;;;;81.72;25.23;;;;;;;;;;5013467;28;20157;-56
2021/11/25 09:09:54;;;;;;;71.35;22.90;;;;;;;;;;5011993;28;20095;-57
2021/11/25 09:12:22;;;;;;;86.03;25.83;;;;;;;;;;4994341;28;20025;-57
2021/11/25 09:14:48;;;;;;;69.85;22.48;;;;;;;;;;5014651;28;20033;-55
2021/11/25 09:17:13;;;;;;;86.13;24.52;;;;;;;;;;4995643;28;20036;-58
2021/11/25 09:19:44;;;;;;;83.68;23.65;;;;;;;;;;5014853;28;20026;-57
2021/11/25 09:22:09;;;;;;;80.90;24.75;;;;;;;;;;4993631;28;20021;-57
2021/11/25 09:24:39;;;;;;;72.13;22.77;;;;;;;;;;4993277;28;20037;-57
2021/11/25 09:27:05;;;;;;;89.97;24.48;;;;;;;;;;4994631;28;20052;-58
2021/11/25 09:29:31;;;;;;;86.07;23.77;;;;;;;;;;5013434;28;20033;-57
2021/11/25 09:31:59;;;;;;;77.63;23.67;;;;;;;;;;5014456;28;20108;-57
2021/11/25 09:34:25;;;;;;;77.10;24.60;;;;;;;;;;5014917;28;20343;-57
2021/11/25 09:36:53;;;;;;;74.18;24.10;;;;;;;;;;5009961;28;20625;-57
2021/11/25 09:39:25;;;;;;;69.75;23.80;;;;;;;;;;5005663;28;20032;-57
2021/11/25 09:41:59;;;;;;;70.57;23.45;;;;;;;;;;5010701;28;20029;-58
2021/11/25 09:44:25;;;;;;;76.57;24.08;;;;;;;;;;4991615;28;20083;-56
2021/11/25 09:46:54;;;;;;;69.63;21.65;;;;;;;;;;5011506;28;20033;-57
2021/11/25 09:49:26;;;;;;;69.15;21.50;;;;;;;;;;4977734;28;20516;-57
2021/11/25 09:51:54;;;;;;;68.45;21.75;;;;;;;;;;5010190;28;20025;-57
2021/11/25 09:54:22;;;;;;;61.22;20.08;;;;;;;;;;5012459;28;20022;-58
2021/11/25 09:56:50;;;;;;;58.97;20.60;;;;;;;;;;4978912;28;20159;-57
2021/11/25 09:59:19;;;;;;;54.72;19.70;;;;;;;;;;5011123;28;20052;-57
2021/11/25 10:01:46;;;;;;;50.42;18.95;;;;;;;;;;5012749;28;20066;-58
2021/11/25 10:04:15;;;;;;;50.40;17.90;;;;;;;;;;5014280;28;20197;-57
2021/11/25 10:06:50;;;;;;;58.67;17.70;;;;;;;;;;4996862;28;20147;-57
2021/11/25 10:09:30;;;;;;;51.00;17.77;;;;;;;;;;5011684;28;20042;-58
2021/11/25 10:12:00;;;;;;;35.63;14.88;;;;;;;;;;4996042;28;20029;-57
2021/11/25 10:14:37;;;;;;;34.60;13.43;;;;;;;;;;4993061;28;20381;-58
2021/11/25 10:17:03;;;;;;;31.30;11.35;;;;;;;;;;5013926;28;22013;-58
2021/11/25 10:19:31;;;;;;;33.83;12.57;;;;;;;;;;5013419;28;20060;-58
2021/11/25 10:21:58;;;;;;;30.38;12.70;;;;;;;;;;4996165;28;20041;-58
2021/11/25 10:24:33;;;;;;;27.02;11.23;;;;;;;;;;4990741;28;20037;-58
2021/11/25 10:27:19;;;;;;;30.40;10.20;;;;;;;;;;5013484;28;20028;-58
2021/11/25 10:29:48;;;;;;;25.30;9.57;;;;;;;;;;5012313;28;20680;-57
2021/11/25 10:32:18;;;;;;;24.23;8.70;;;;;;;;;;5015174;28;20048;-57
2021/11/25 10:35:08;;;;;;;23.77;7.47;;;;;;;;;;5005147;28;20024;-58
2021/11/25 10:37:51;;;;;;;16.85;6.53;;;;;;;;;;5013898;28;20508;-57
2021/11/25 10:40:23;;;;;;;14.15;5.55;;;;;;;;;;5009232;28;20381;-62
2021/11/25 10:42:51;;;;;;;16.42;4.07;;;;;;;;;;5012791;28;20036;-58
2021/11/25 10:45:20;;;;;;;9.52;3.22;;;;;;;;;;4992203;28;20040;-58
2021/11/25 10:47:59;;;;;;;9.70;3.35;;;;;;;;;;4992457;28;20033;-59
2021/11/25 10:50:26;;;;;;;8.95;2.22;;;;;;;;;;4991675;28;20110;-58
2021/11/25 10:53:01;;;;;;;10.27;1.45;;;;;;;;;;4992351;28;20034;-62
2021/11/25 10:55:26;;;;;;;11.15;1.20;;;;;;;;;;4988955;28;20053;-59
2021/11/25 10:57:53;;;;;;;7.70;2.13;;;;;;;;;;4991086;28;20036;-60
2021/11/25 11:00:25;;;;;;;13.27;1.25;;;;;;;;;;5013048;28;20048;-60
2021/11/25 11:03:12;;;;;;;15.95;1.73;;;;;;;;;;5013002;28;20029;-59
2021/11/25 11:05:46;;;;;;;7.25;1.00;;;;;;;;;;4995082;28;21245;-59
2021/11/25 11:08:16;;;;;;;6.85;0.82;;;;;;;;;;5008409;28;20069;-60
2021/11/25 11:10:51;;;;;;;9.68;1.00;;;;;;;;;;5009300;28;20037;-59
2021/11/25 11:16:10;;;;;;;8.80;0.85;;;;;;;;;;4990366;28;20052;-60
2021/11/25 11:18:52;;;;;;;4.85;0.93;;;;;;;;;;5005820;28;20053;-60
2021/11/25 11:21:39;;;;;;;8.63;0.90;;;;;;;;;;5011460;28;20044;-60
2021/11/25 11:24:05;;;;;;;6.88;1.23;;;;;;;;;;4975744;28;20097;-59
2021/11/25 11:26:31;;;;;;;5.68;1.00;;;;;;;;;;5014100;28;20117;-61
2021/11/25 11:28:59;;;;;;;8.38;1.23;;;;;;;;;;4978007;28;20036;-62
2021/11/25 11:31:25;;;;;;;6.50;1.13;;;;;;;;;;5011247;28;20033;-60
2021/11/25 11:33:53;;;;;;;9.15;1.08;;;;;;;;;;5007462;28;20956;-62
2021/11/25 11:36:20;;;;;;;9.15;1.33;;;;;;;;;;5008598;28;20468;-61
2021/11/25 11:38:49;;;;;;;10.52;0.93;;;;;;;;;;4993944;28;20038;-60
2021/11/25 11:41:17;;;;;;;8.80;1.17;;;;;;;;;;4990116;28;20155;-61
2021/11/25 11:43:43;;;;;;;10.65;1.00;;;;;;;;;;5010448;28;20463;-60
2021/11/25 11:46:18;;;;;;;2.53;1.02;;;;;;;;;;4988993;28;20503;-61
2021/11/25 11:48:45;;;;;;;8.52;1.00;;;;;;;;;;5008160;28;20156;-59
2021/11/25 11:51:13;;;;;;;7.75;0.55;;;;;;;;;;4992060;28;20108;-60
2021/11/25 11:53:44;;;;;;;4.18;0.63;;;;;;;;;;5006015;28;20025;-61
2021/11/25 11:56:13;;;;;;;6.25;0.60;;;;;;;;;;5007040;28;20047;-62
2021/11/25 11:58:44;;;;;;;3.83;0.63;;;;;;;;;;5010780;28;20129;-61
2021/11/25 12:01:15;;;;;;;4.78;0.82;;;;;;;;;;5008296;28;20072;-62
2021/11/25 12:03:41;;;;;;;6.20;0.68;;;;;;;;;;5010587;28;20037;-62
2021/11/25 12:06:16;;;;;;;3.17;0.40;;;;;;;;;;5010703;28;20029;-60
2021/11/25 12:08:42;;;;;;;6.97;0.80;;;;;;;;;;5004732;28;20109;-63
2021/11/25 12:11:11;;;;;;;13.68;0.95;;;;;;;;;;4982972;28;20498;-61
2021/11/25 12:13:38;;;;;;;4.53;0.75;;;;;;;;;;4991094;28;20053;-61
2021/11/25 12:16:16;;;;;;;8.48;0.88;;;;;;;;;;4985173;28;20036;-58
2021/11/25 12:18:42;;;;;;;9.35;0.88;;;;;;;;;;5007220;28;20591;-59
2021/11/25 12:21:07;;;;;;;4.10;0.50;;;;;;;;;;4992086;28;20871;-59
2021/11/25 12:23:34;;;;;;;6.50;0.85;;;;;;;;;;5004894;28;20029;-59
2021/11/25 12:26:00;;;;;;;11.30;2.35;;;;;;;;;;5012049;28;20554;-59
2021/11/25 12:28:27;;;;;;;4.10;0.73;;;;;;;;;;5007678;28;20101;-59
2021/11/25 12:30:56;;;;;;;9.52;1.13;;;;;;;;;;5010335;28;20036;-58
2021/11/25 12:33:39;;;;;;;14.10;1.15;;;;;;;;;;4987719;28;20041;-58
2021/11/25 12:36:07;;;;;;;3.97;0.98;;;;;;;;;;5003396;28;20041;-59
2021/11/25 12:38:41;;;;;;;6.63;0.82;;;;;;;;;;4989249;28;20038;-59
2021/11/25 12:41:10;;;;;;;3.15;0.70;;;;;;;;;;5006938;28;20171;-59
2021/11/25 12:43:41;;;;;;;7.60;1.23;;;;;;;;;;5012789;28;20164;-59
2021/11/25 12:46:12;;;;;;;2.97;0.73;;;;;;;;;;4992990;28;20508;-60
2021/11/25 12:48:41;;;;;;;5.82;0.80;;;;;;;;;;4977336;28;20029;-60
2021/11/25 12:51:08;;;;;;;9.32;1.00;;;;;;;;;;4996069;28;20831;-59
2021/11/25 12:53:41;;;;;;;9.38;0.80;;;;;;;;;;4995260;28;20073;-59
2021/11/25 12:56:09;;;;;;;6.15;0.80;;;;;;;;;;5014859;28;20028;-60
2021/11/25 12:58:41;;;;;;;7.32;0.90;;;;;;;;;;5011326;28;20100;-60
2021/11/25 13:01:10;;;;;;;7.18;0.80;;;;;;;;;;4994936;28;20035;-59
2021/11/25 13:03:36;;;;;;;9.07;1.23;;;;;;;;;;4994693;28;20033;-59
2021/11/25 13:06:04;;;;;;;2.42;0.52;;;;;;;;;;4991097;28;20099;-59
2021/11/25 13:08:37;;;;;;;4.18;0.70;;;;;;;;;;4996959;28;20615;-61
2021/11/25 13:11:17;;;;;;;6.65;0.80;;;;;;;;;;4992345;28;20021;-59
2021/11/25 13:13:47;;;;;;;5.45;0.63;;;;;;;;;;5011274;28;20595;-59
2021/11/25 13:16:13;;;;;;;2.78;0.55;;;;;;;;;;4976969;28;20063;-60
2021/11/25 13:18:39;;;;;;;9.52;1.38;;;;;;;;;;4992672;28;20178;-60
2021/11/25 13:21:12;;;;;;;3.92;0.77;;;;;;;;;;4990068;28;20019;-61
2021/11/25 13:23:43;;;;;;;3.25;0.70;;;;;;;;;;4993031;28;20030;-61
2021/11/25 13:26:11;;;;;;;5.35;0.90;;;;;;;;;;5013136;28;20021;-60
2021/11/25 13:28:38;;;;;;;10.57;0.80;;;;;;;;;;5014358;28;20863;-60
2021/11/25 13:31:17;;;;;;;3.47;0.77;;;;;;;;;;4992385;28;20032;-61
2021/11/25 13:34:10;;;;;;;2.22;0.57;;;;;;;;;;4999981;28;20038;-61
2021/11/25 13:36:35;;;;;;;7.50;0.75;;;;;;;;;;5013554;28;20958;-62
2021/11/25 13:39:01;;;;;;;5.47;0.70;;;;;;;;;;4990174;28;20021;-63
2021/11/25 13:41:29;;;;;;;11.05;0.98;;;;;;;;;;5011773;28;20040;-61
2021/11/25 13:43:58;;;;;;;7.80;1.23;;;;;;;;;;5012756;28;20036;-60
2021/11/25 13:46:43;;;;;;;5.40;1.10;;;;;;;;;;5011493;28;20075;-59
2021/11/25 13:49:12;;;;;;;6.57;1.13;;;;;;;;;;5011826;28;20034;-60
2021/11/25 13:51:43;;;;;;;8.85;1.55;;;;;;;;;;4976080;28;20037;-59
2021/11/25 13:54:14;;;;;;;12.52;1.38;;;;;;;;;;5011560;28;20163;-58
2021/11/25 13:56:48;;;;;;;4.72;0.85;;;;;;;;;;5005335;28;20050;-58
2021/11/25 13:59:17;;;;;;;7.32;1.02;;;;;;;;;;5007507;28;20481;-59
2021/11/25 14:01:45;;;;;;;4.95;0.90;;;;;;;;;;5009316;28;20029;-61
2021/11/25 14:04:12;;;;;;;6.18;0.95;;;;;;;;;;4978137;28;20034;-60
2021/11/25 14:06:38;;;;;;;6.40;0.93;;;;;;;;;;5013740;28;20079;-59
2021/11/25 14:09:15;;;;;;;14.45;1.42;;;;;;;;;;5014632;28;20096;-60
2021/11/25 14:11:55;;;;;;;5.25;1.05;;;;;;;;;;4975664;28;20045;-60
2021/11/25 14:14:28;;;;;;;4.03;0.65;;;;;;;;;;5008673;28;20425;-60
2021/11/25 14:16:56;;;;;;;5.00;0.90;;;;;;;;;;4992978;28;20032;-60
2021/11/25 14:19:28;;;;;;;12.90;1.15;;;;;;;;;;5012470;28;20060;-60
2021/11/25 14:21:55;;;;;;;11.57;1.48;;;;;;;;;;4992531;28;20048;-61
2021/11/25 14:24:23;;;;;;;14.73;1.70;;;;;;;;;;5009768;28;20059;-59
2021/11/25 14:32:30;;;;;;;5.65;0.75;;;;;;;;;;4998695;28;20037;-60
2021/11/25 14:34:59;;;;;;;5.65;0.93;;;;;;;;;;5008853;28;20018;-60
2021/11/25 14:37:26;;;;;;;9.85;1.20;;;;;;;;;;4991707;28;20115;-59
2021/11/25 14:39:55;;;;;;;8.63;1.15;;;;;;;;;;5012132;28;22377;-59
2021/11/25 14:45:56;;;;;;;7.97;0.88;;;;;;;;;;5014287;28;20032;-60
2021/11/25 14:48:32;;;;;;;6.28;0.65;;;;;;;;;;4987146;28;20119;-61
2021/11/25 14:51:04;;;;;;;9.70;1.05;;;;;;;;;;4991310;28;20033;-60
2021/11/25 14:53:41;;;;;;;5.82;0.85;;;;;;;;;;4992492;28;20029;-60
2021/11/25 14:56:17;;;;;;;6.85;0.65;;;;;;;;;;5008698;28;20108;-60
2021/11/25 14:59:15;;;;;;;17.00;1.30;;;;;;;;;;5002591;28;20041;-59
2021/11/25 15:01:46;;;;;;;3.35;0.85;;;;;;;;;;4941171;28;20053;-60
2021/11/25 15:04:14;;;;;;;15.52;1.38;;;;;;;;;;4990356;28;20853;-60
2021/11/25 15:06:46;;;;;;;9.13;1.05;;;;;;;;;;5005521;28;20506;-61
2021/11/25 15:09:11;;;;;;;11.10;1.20;;;;;;;;;;4995132;28;20108;-60
2021/11/25 15:11:38;;;;;;;13.05;1.13;;;;;;;;;;5006303;28;20059;-60
2021/11/25 15:14:10;;;;;;;6.63;0.85;;;;;;;;;;4993993;28;20119;-60
2021/11/25 15:16:36;;;;;;;10.35;1.25;;;;;;;;;;4991822;28;20033;-60
2021/11/25 15:19:05;;;;;;;8.85;0.90;;;;;;;;;;4989038;28;20098;-60
2021/11/25 15:21:30;;;;;;;11.45;1.50;;;;;;;;;;5007757;28;20116;-61
2021/11/25 15:23:56;;;;;;;5.47;1.95;;;;;;;;;;5010299;28;20065;-61